sensor_id;sensor_type;location;lat;lon;timestamp;noise_LAeq;noise_LA_min;noise_LA_max;noise_LA01;noise_LA95
78074;Laerm;67283;50.960;13.856;2023-05-10T00:01:33;35.58;33.52;38.31;;
78074;Laerm;67283;50.960;13.856;2023-05-10T00:04:01;35.27;33.72;37.04;;
78074;Laerm;67283;50.960;13.856;2023-05-10T00:06:31;35.37;33.33;56.43;;
78074;Laerm;67283;50.960;13.856;2023-05-10T00:09:00;51.71;33.66;70.56;;
78074;Laerm;67283;50.960;13.856;2023-05-10T00:11:28;35.33;33.43;42.18;;
78074;Laerm;67283;50.960;13.856;2023-05-10T00:13:56;57.93;33.95;78.71;;
78074;Laerm;67283;50.960;13.856;2023-05-10T00:16:24;60.21;33.84;78.87;;
78074;Laerm;67283;50.960;13.856;2023-05-10T00:18:52;35.07;32.84;47.45;;
78074;Laerm;67283;50.960;13.856;2023-05-10T00:21:20;35.14;33.40;47.18;;
78074;Laerm;67283;50.960;13.856;2023-05-10T00:23:51;34.93;33.07;50.65;;
78074;Laerm;67283;50.960;13.856;2023-05-10T00:26:19;34.80;33.06;38.55;;
78074;Laerm;67283;50.960;13.856;2023-05-10T00:28:47;34.80;33.06;38.55;;
78074;Laerm;67283;50.960;13.856;2023-05-10T00:31:15;34.80;33.06;38.55;;
78074;Laerm;67283;50.960;13.856;2023-05-10T00:33:43;35.51;33.14;64.62;;
78074;Laerm;67283;50.960;13.856;2023-05-10T00:36:12;35.11;33.47;52.44;;
78074;Laerm;67283;50.960;13.856;2023-05-10T00:38:40;34.87;33.15;36.70;;
78074;Laerm;67283;50.960;13.856;2023-05-10T00:41:10;34.96;33.21;36.67;;
78074;Laerm;67283;50.960;13.856;2023-05-10T00:43:38;34.79;33.03;37.48;;
78074;Laerm;67283;50.960;13.856;2023-05-10T00:46:06;34.76;33.20;36.44;;
78074;Laerm;67283;50.960;13.856;2023-05-10T00:48:35;34.79;33.11;52.77;;
78074;Laerm;67283;50.960;13.856;2023-05-10T00:51:03;34.81;32.86;36.75;;
78074;Laerm;67283;50.960;13.856;2023-05-10T00:53:31;34.63;32.81;45.01;;
78074;Laerm;67283;50.960;13.856;2023-05-10T00:56:00;52.80;33.27;73.40;;
78074;Laerm;67283;50.960;13.856;2023-05-10T00:58:31;47.88;33.15;64.46;;
78074;Laerm;67283;50.960;13.856;2023-05-10T01:00:59;35.03;33.00;56.18;;
78074;Laerm;67283;50.960;13.856;2023-05-10T01:03:28;39.31;32.93;72.83;;
78074;Laerm;67283;50.960;13.856;2023-05-10T01:05:56;34.57;32.88;36.06;;
78074;Laerm;67283;50.960;13.856;2023-05-10T01:08:25;34.91;33.13;36.54;;
78074;Laerm;67283;50.960;13.856;2023-05-10T01:10:53;48.35;33.03;66.34;;
78074;Laerm;67283;50.960;13.856;2023-05-10T01:13:25;34.87;32.99;55.73;;
78074;Laerm;67283;50.960;13.856;2023-05-10T01:16:00;34.83;33.07;45.32;;
78074;Laerm;67283;50.960;13.856;2023-05-10T01:18:29;34.83;33.07;45.32;;
78074;Laerm;67283;50.960;13.856;2023-05-10T01:21:01;34.45;32.76;36.68;;
78074;Laerm;67283;50.960;13.856;2023-05-10T01:23:37;34.65;32.90;36.41;;
78074;Laerm;67283;50.960;13.856;2023-05-10T01:29:11;54.77;33.05;72.59;;
78074;Laerm;67283;50.960;13.856;2023-05-10T01:31:58;36.97;33.10;55.53;;
78074;Laerm;67283;50.960;13.856;2023-05-10T01:34:30;39.91;33.10;58.03;;
78074;Laerm;67283;50.960;13.856;2023-05-10T01:37:02;53.28;32.97;72.89;;
78074;Laerm;67283;50.960;13.856;2023-05-10T01:39:37;34.66;32.87;36.78;;
78074;Laerm;67283;50.960;13.856;2023-05-10T01:42:10;54.24;33.17;73.87;;
78074;Laerm;67283;50.960;13.856;2023-05-10T01:44:39;35.36;33.17;44.87;;
78074;Laerm;67283;50.960;13.856;2023-05-10T01:47:11;35.15;33.25;42.62;;
78074;Laerm;67283;50.960;13.856;2023-05-10T01:49:42;53.22;33.49;74.53;;
78074;Laerm;67283;50.960;13.856;2023-05-10T01:52:12;52.16;32.61;70.40;;
78074;Laerm;67283;50.960;13.856;2023-05-10T01:54:43;52.16;32.61;70.40;;
78074;Laerm;67283;50.960;13.856;2023-05-10T01:57:12;36.59;33.26;51.58;;
78074;Laerm;67283;50.960;13.856;2023-05-10T01:59:41;37.00;33.39;52.31;;
78074;Laerm;67283;50.960;13.856;2023-05-10T02:02:13;52.91;33.57;69.76;;
78074;Laerm;67283;50.960;13.856;2023-05-10T02:04:42;54.21;33.48;72.12;;
78074;Laerm;67283;50.960;13.856;2023-05-10T02:07:11;40.27;33.48;58.03;;
78074;Laerm;67283;50.960;13.856;2023-05-10T02:09:39;49.20;33.42;66.83;;
78074;Laerm;67283;50.960;13.856;2023-05-10T02:12:09;55.84;33.67;71.54;;
78074;Laerm;67283;50.960;13.856;2023-05-10T02:14:37;55.05;34.05;71.44;;
78074;Laerm;67283;50.960;13.856;2023-05-10T02:17:07;40.64;33.59;61.45;;
78074;Laerm;67283;50.960;13.856;2023-05-10T02:19:39;51.58;33.79;67.68;;
78074;Laerm;67283;50.960;13.856;2023-05-10T02:22:09;38.82;34.00;47.67;;
78074;Laerm;67283;50.960;13.856;2023-05-10T02:24:37;38.94;33.76;49.46;;
78074;Laerm;67283;50.960;13.856;2023-05-10T02:27:06;40.56;33.89;53.36;;
78074;Laerm;67283;50.960;13.856;2023-05-10T02:29:35;51.00;34.80;65.17;;
78074;Laerm;67283;50.960;13.856;2023-05-10T02:32:04;55.07;35.36;68.86;;
78074;Laerm;67283;50.960;13.856;2023-05-10T02:34:33;57.00;36.92;70.65;;
78074;Laerm;67283;50.960;13.856;2023-05-10T02:37:05;60.86;37.43;73.41;;
78074;Laerm;67283;50.960;13.856;2023-05-10T02:39:33;61.42;40.24;75.06;;
78074;Laerm;67283;50.960;13.856;2023-05-10T02:42:03;59.23;38.97;74.59;;
78074;Laerm;67283;50.960;13.856;2023-05-10T02:44:32;57.75;39.66;71.12;;
78074;Laerm;67283;50.960;13.856;2023-05-10T02:47:01;55.10;39.03;68.82;;
78074;Laerm;67283;50.960;13.856;2023-05-10T02:49:30;56.57;38.57;70.86;;
78074;Laerm;67283;50.960;13.856;2023-05-10T02:52:00;52.81;36.85;68.06;;
78074;Laerm;67283;50.960;13.856;2023-05-10T02:54:32;54.35;38.73;69.45;;
78074;Laerm;67283;50.960;13.856;2023-05-10T02:57:02;59.62;39.17;73.89;;
78074;Laerm;67283;50.960;13.856;2023-05-10T02:59:31;57.89;36.74;72.47;;
78074;Laerm;67283;50.960;13.856;2023-05-10T03:02:00;52.89;38.25;69.30;;
78074;Laerm;67283;50.960;13.856;2023-05-10T03:04:29;55.83;38.28;69.99;;
78074;Laerm;67283;50.960;13.856;2023-05-10T03:06:57;58.07;37.48;73.95;;
78074;Laerm;67283;50.960;13.856;2023-05-10T03:09:25;61.35;38.49;75.40;;
78074;Laerm;67283;50.960;13.856;2023-05-10T03:12:02;59.47;39.11;76.55;;
78074;Laerm;67283;50.960;13.856;2023-05-10T03:14:34;57.13;38.86;73.72;;
78074;Laerm;67283;50.960;13.856;2023-05-10T03:17:08;58.28;39.25;71.30;;
78074;Laerm;67283;50.960;13.856;2023-05-10T03:19:39;59.40;38.56;73.33;;
78074;Laerm;67283;50.960;13.856;2023-05-10T03:22:11;57.25;37.43;69.66;;
78074;Laerm;67283;50.960;13.856;2023-05-10T03:24:41;58.06;37.29;72.90;;
78074;Laerm;67283;50.960;13.856;2023-05-10T03:27:12;61.53;38.93;73.63;;
78074;Laerm;67283;50.960;13.856;2023-05-10T03:29:42;64.65;41.51;79.73;;
78074;Laerm;67283;50.960;13.856;2023-05-10T03:32:11;64.65;41.51;79.73;;
78074;Laerm;67283;50.960;13.856;2023-05-10T03:34:41;61.08;38.32;74.61;;
78074;Laerm;67283;50.960;13.856;2023-05-10T03:37:09;59.72;38.18;71.41;;
78074;Laerm;67283;50.960;13.856;2023-05-10T03:39:37;60.70;37.25;74.15;;
78074;Laerm;67283;50.960;13.856;2023-05-10T03:42:05;64.76;39.94;78.67;;
78074;Laerm;67283;50.960;13.856;2023-05-10T03:44:39;64.47;40.82;79.19;;
78074;Laerm;67283;50.960;13.856;2023-05-10T03:47:07;62.08;40.16;77.46;;
78074;Laerm;67283;50.960;13.856;2023-05-10T03:49:35;58.86;37.12;72.72;;
78074;Laerm;67283;50.960;13.856;2023-05-10T03:52:03;61.99;39.42;72.28;;
78074;Laerm;67283;50.960;13.856;2023-05-10T03:54:32;60.43;37.78;72.53;;
78074;Laerm;67283;50.960;13.856;2023-05-10T03:57:00;56.86;37.99;69.19;;
78074;Laerm;67283;50.960;13.856;2023-05-10T03:59:28;60.68;35.78;76.54;;
78074;Laerm;67283;50.960;13.856;2023-05-10T04:01:58;58.05;36.75;71.43;;
78074;Laerm;67283;50.960;13.856;2023-05-10T04:04:26;60.98;37.50;77.99;;
78074;Laerm;67283;50.960;13.856;2023-05-10T04:06:55;55.68;36.41;71.96;;
78074;Laerm;67283;50.960;13.856;2023-05-10T04:09:23;61.99;39.58;72.83;;
78074;Laerm;67283;50.960;13.856;2023-05-10T04:11:51;63.25;41.58;74.25;;
78074;Laerm;67283;50.960;13.856;2023-05-10T04:14:19;60.51;37.26;74.85;;
78074;Laerm;67283;50.960;13.856;2023-05-10T04:16:47;60.51;37.26;74.85;;
78074;Laerm;67283;50.960;13.856;2023-05-10T04:19:18;61.27;36.81;77.67;;
78074;Laerm;67283;50.960;13.856;2023-05-10T04:21:46;63.35;38.41;77.09;;
78074;Laerm;67283;50.960;13.856;2023-05-10T04:24:14;61.64;40.25;81.10;;
78074;Laerm;67283;50.960;13.856;2023-05-10T04:26:42;63.92;39.88;76.27;;
78074;Laerm;67283;50.960;13.856;2023-05-10T04:29:10;64.14;44.82;82.45;;
78074;Laerm;67283;50.960;13.856;2023-05-10T04:31:38;62.42;42.95;73.51;;
78074;Laerm;67283;50.960;13.856;2023-05-10T04:34:06;62.92;40.21;79.62;;
78074;Laerm;67283;50.960;13.856;2023-05-10T04:36:37;63.70;36.57;79.90;;
78074;Laerm;67283;50.960;13.856;2023-05-10T04:39:05;62.19;37.31;74.59;;
78074;Laerm;67283;50.960;13.856;2023-05-10T04:41:34;62.57;36.38;76.78;;
78074;Laerm;67283;50.960;13.856;2023-05-10T04:44:03;60.60;37.63;75.18;;
78074;Laerm;67283;50.960;13.856;2023-05-10T04:46:31;60.30;39.07;71.63;;
78074;Laerm;67283;50.960;13.856;2023-05-10T04:48:59;57.90;35.76;73.25;;
78074;Laerm;67283;50.960;13.856;2023-05-10T04:51:27;63.55;35.71;78.71;;
78074;Laerm;67283;50.960;13.856;2023-05-10T04:53:59;63.72;40.60;74.83;;
78074;Laerm;67283;50.960;13.856;2023-05-10T04:56:27;60.16;36.16;74.83;;
78074;Laerm;67283;50.960;13.856;2023-05-10T04:58:55;59.77;36.60;70.96;;
78074;Laerm;67283;50.960;13.856;2023-05-10T05:01:23;60.93;41.81;71.65;;
78074;Laerm;67283;50.960;13.856;2023-05-10T05:03:51;64.80;42.96;79.03;;
78074;Laerm;67283;50.960;13.856;2023-05-10T05:06:19;57.77;35.44;71.04;;
78074;Laerm;67283;50.960;13.856;2023-05-10T05:08:47;61.02;40.61;72.30;;
78074;Laerm;67283;50.960;13.856;2023-05-10T05:11:19;63.96;40.34;77.12;;
78074;Laerm;67283;50.960;13.856;2023-05-10T05:13:47;62.85;36.77;74.81;;
78074;Laerm;67283;50.960;13.856;2023-05-10T05:16:15;63.00;42.57;73.03;;
78074;Laerm;67283;50.960;13.856;2023-05-10T05:18:43;64.33;42.31;76.08;;
78074;Laerm;67283;50.960;13.856;2023-05-10T05:21:15;61.59;36.80;77.32;;
78074;Laerm;67283;50.960;13.856;2023-05-10T05:23:43;61.59;36.80;77.32;;
78074;Laerm;67283;50.960;13.856;2023-05-10T05:26:11;62.57;39.72;75.49;;
78074;Laerm;67283;50.960;13.856;2023-05-10T05:28:42;62.47;37.41;73.57;;
78074;Laerm;67283;50.960;13.856;2023-05-10T05:31:10;62.47;37.41;73.57;;
78074;Laerm;67283;50.960;13.856;2023-05-10T05:33:38;62.99;41.16;74.02;;
78074;Laerm;67283;50.960;13.856;2023-05-10T05:36:07;61.32;40.63;72.93;;
78074;Laerm;67283;50.960;13.856;2023-05-10T05:38:35;64.41;43.75;77.93;;
78074;Laerm;67283;50.960;13.856;2023-05-10T05:41:03;63.64;41.39;75.96;;
78074;Laerm;67283;50.960;13.856;2023-05-10T05:43:31;63.64;41.39;75.96;;
78074;Laerm;67283;50.960;13.856;2023-05-10T05:46:02;57.56;36.10;72.35;;
78074;Laerm;67283;50.960;13.856;2023-05-10T05:48:30;64.67;35.98;79.04;;
78074;Laerm;67283;50.960;13.856;2023-05-10T05:50:58;63.21;38.01;76.90;;
78074;Laerm;67283;50.960;13.856;2023-05-10T05:53:26;62.18;36.75;80.55;;
78074;Laerm;67283;50.960;13.856;2023-05-10T05:55:55;61.22;35.96;77.38;;
78074;Laerm;67283;50.960;13.856;2023-05-10T05:58:23;63.66;35.91;84.91;;
78074;Laerm;67283;50.960;13.856;2023-05-10T06:00:52;61.14;36.45;78.03;;
78074;Laerm;67283;50.960;13.856;2023-05-10T06:03:22;58.70;36.60;74.89;;
78074;Laerm;67283;50.960;13.856;2023-05-10T06:05:51;59.43;36.69;71.42;;
78074;Laerm;67283;50.960;13.856;2023-05-10T06:08:19;61.21;37.50;82.89;;
78074;Laerm;67283;50.960;13.856;2023-05-10T06:10:47;52.88;35.04;72.14;;
78074;Laerm;67283;50.960;13.856;2023-05-10T06:13:15;59.02;35.08;71.60;;
78074;Laerm;67283;50.960;13.856;2023-05-10T06:15:43;63.42;35.02;79.90;;
78074;Laerm;67283;50.960;13.856;2023-05-10T06:18:11;62.86;37.60;80.14;;
78074;Laerm;67283;50.960;13.856;2023-05-10T06:20:43;59.72;35.72;76.21;;
78074;Laerm;67283;50.960;13.856;2023-05-10T06:23:11;59.79;36.65;73.88;;
78074;Laerm;67283;50.960;13.856;2023-05-10T06:25:39;58.88;34.83;76.59;;
78074;Laerm;67283;50.960;13.856;2023-05-10T06:28:07;58.88;34.83;76.59;;
78074;Laerm;67283;50.960;13.856;2023-05-10T06:30:35;58.77;36.38;73.10;;
78074;Laerm;67283;50.960;13.856;2023-05-10T06:33:04;59.98;35.50;74.10;;
78074;Laerm;67283;50.960;13.856;2023-05-10T06:35:32;62.28;36.78;74.58;;
78074;Laerm;67283;50.960;13.856;2023-05-10T06:38:03;57.86;35.04;73.72;;
78074;Laerm;67283;50.960;13.856;2023-05-10T06:40:31;57.45;34.67;71.53;;
78074;Laerm;67283;50.960;13.856;2023-05-10T06:42:59;54.00;34.15;71.79;;
78074;Laerm;67283;50.960;13.856;2023-05-10T06:45:27;58.12;34.38;72.71;;
78074;Laerm;67283;50.960;13.856;2023-05-10T06:47:55;59.81;35.49;71.58;;
78074;Laerm;67283;50.960;13.856;2023-05-10T06:50:23;58.59;35.81;74.12;;
78074;Laerm;67283;50.960;13.856;2023-05-10T06:52:51;59.88;37.85;72.53;;
78074;Laerm;67283;50.960;13.856;2023-05-10T06:55:23;59.27;35.96;78.15;;
78074;Laerm;67283;50.960;13.856;2023-05-10T06:57:51;59.43;37.15;72.29;;
78074;Laerm;67283;50.960;13.856;2023-05-10T07:00:19;56.68;36.57;70.98;;
78074;Laerm;67283;50.960;13.856;2023-05-10T07:02:47;57.99;37.69;70.45;;
78074;Laerm;67283;50.960;13.856;2023-05-10T07:05:16;57.77;36.16;70.95;;
78074;Laerm;67283;50.960;13.856;2023-05-10T07:07:44;59.45;37.11;76.44;;
78074;Laerm;67283;50.960;13.856;2023-05-10T07:10:12;58.44;34.69;72.79;;
78074;Laerm;67283;50.960;13.856;2023-05-10T07:12:43;58.83;37.19;75.86;;
78074;Laerm;67283;50.960;13.856;2023-05-10T07:15:11;59.70;35.96;72.97;;
78074;Laerm;67283;50.960;13.856;2023-05-10T07:17:40;59.38;36.86;71.49;;
78074;Laerm;67283;50.960;13.856;2023-05-10T07:20:09;61.63;38.40;76.18;;
78074;Laerm;67283;50.960;13.856;2023-05-10T07:22:37;59.91;35.56;73.85;;
78074;Laerm;67283;50.960;13.856;2023-05-10T07:25:06;61.71;36.71;75.39;;
78074;Laerm;67283;50.960;13.856;2023-05-10T07:27:34;61.71;36.71;75.39;;
78074;Laerm;67283;50.960;13.856;2023-05-10T07:30:05;62.53;37.38;79.66;;
78074;Laerm;67283;50.960;13.856;2023-05-10T07:32:33;55.28;36.43;68.80;;
78074;Laerm;67283;50.960;13.856;2023-05-10T07:35:01;54.94;36.02;70.63;;
78074;Laerm;67283;50.960;13.856;2023-05-10T07:37:30;56.66;38.41;70.37;;
78074;Laerm;67283;50.960;13.856;2023-05-10T07:39:58;57.06;37.32;71.56;;
78074;Laerm;67283;50.960;13.856;2023-05-10T07:42:27;58.98;36.24;72.54;;
78074;Laerm;67283;50.960;13.856;2023-05-10T07:44:55;55.09;35.78;70.24;;
78074;Laerm;67283;50.960;13.856;2023-05-10T07:47:25;58.92;35.47;71.40;;
78074;Laerm;67283;50.960;13.856;2023-05-10T07:49:53;59.20;36.91;77.89;;
78074;Laerm;67283;50.960;13.856;2023-05-10T07:52:22;59.20;36.91;77.89;;
78074;Laerm;67283;50.960;13.856;2023-05-10T07:54:50;59.20;36.91;77.89;;
78074;Laerm;67283;50.960;13.856;2023-05-10T07:57:18;57.95;34.91;73.08;;
78074;Laerm;67283;50.960;13.856;2023-05-10T07:59:46;63.28;36.42;80.92;;
78074;Laerm;67283;50.960;13.856;2023-05-10T08:02:14;63.28;36.42;80.92;;
78074;Laerm;67283;50.960;13.856;2023-05-10T08:04:45;58.47;37.96;71.95;;
78074;Laerm;67283;50.960;13.856;2023-05-10T08:07:13;62.42;35.95;84.62;;
78074;Laerm;67283;50.960;13.856;2023-05-10T08:09:41;55.00;36.56;73.22;;
78074;Laerm;67283;50.960;13.856;2023-05-10T08:12:09;59.41;36.11;71.74;;
78074;Laerm;67283;50.960;13.856;2023-05-10T08:14:37;60.44;35.75;71.85;;
78074;Laerm;67283;50.960;13.856;2023-05-10T08:17:05;64.45;35.91;80.89;;
78074;Laerm;67283;50.960;13.856;2023-05-10T08:19:33;60.13;36.27;74.04;;
78074;Laerm;67283;50.960;13.856;2023-05-10T08:22:04;57.28;35.28;74.76;;
78074;Laerm;67283;50.960;13.856;2023-05-10T08:24:32;57.66;37.18;73.21;;
78074;Laerm;67283;50.960;13.856;2023-05-10T08:27:03;57.24;37.80;71.15;;
78074;Laerm;67283;50.960;13.856;2023-05-10T08:29:31;57.24;37.80;71.15;;
78074;Laerm;67283;50.960;13.856;2023-05-10T08:31:59;61.38;37.81;76.80;;
78074;Laerm;67283;50.960;13.856;2023-05-10T08:34:27;61.38;37.81;76.80;;
78074;Laerm;67283;50.960;13.856;2023-05-10T08:36:56;58.85;36.32;73.82;;
78074;Laerm;67283;50.960;13.856;2023-05-10T08:39:26;57.11;35.30;73.44;;
78074;Laerm;67283;50.960;13.856;2023-05-10T08:41:54;59.84;36.95;76.06;;
78074;Laerm;67283;50.960;13.856;2023-05-10T08:44:26;55.92;36.44;71.90;;
78074;Laerm;67283;50.960;13.856;2023-05-10T08:46:55;60.79;36.67;75.75;;
78074;Laerm;67283;50.960;13.856;2023-05-10T08:49:24;56.44;37.09;71.39;;
78074;Laerm;67283;50.960;13.856;2023-05-10T08:51:55;59.57;36.69;75.57;;
78074;Laerm;67283;50.960;13.856;2023-05-10T08:54:27;56.56;36.87;70.30;;
78074;Laerm;67283;50.960;13.856;2023-05-10T08:56:56;56.75;36.74;69.78;;
78074;Laerm;67283;50.960;13.856;2023-05-10T08:59:24;63.28;37.55;80.89;;
78074;Laerm;67283;50.960;13.856;2023-05-10T09:01:52;54.58;37.45;73.43;;
78074;Laerm;67283;50.960;13.856;2023-05-10T09:04:21;60.89;37.47;83.19;;
78074;Laerm;67283;50.960;13.856;2023-05-10T09:06:50;54.40;36.41;68.46;;
78074;Laerm;67283;50.960;13.856;2023-05-10T09:09:18;59.16;37.82;72.78;;
78074;Laerm;67283;50.960;13.856;2023-05-10T09:11:49;53.99;37.81;68.60;;
78074;Laerm;67283;50.960;13.856;2023-05-10T09:14:17;60.10;34.64;79.73;;
78074;Laerm;67283;50.960;13.856;2023-05-10T09:16:46;55.05;36.22;71.75;;
78074;Laerm;67283;50.960;13.856;2023-05-10T09:19:14;57.94;36.49;70.67;;
78074;Laerm;67283;50.960;13.856;2023-05-10T09:21:42;58.80;37.39;72.51;;
78074;Laerm;67283;50.960;13.856;2023-05-10T09:24:11;60.46;36.32;77.86;;
78074;Laerm;67283;50.960;13.856;2023-05-10T09:26:45;56.50;36.17;68.45;;
78074;Laerm;67283;50.960;13.856;2023-05-10T09:29:17;61.37;37.91;76.91;;
78074;Laerm;67283;50.960;13.856;2023-05-10T09:31:46;56.13;37.26;72.56;;
78074;Laerm;67283;50.960;13.856;2023-05-10T09:34:16;60.47;38.69;79.21;;
78074;Laerm;67283;50.960;13.856;2023-05-10T09:36:52;57.73;37.33;71.51;;
78074;Laerm;67283;50.960;13.856;2023-05-10T09:39:21;58.54;36.31;74.04;;
78074;Laerm;67283;50.960;13.856;2023-05-10T09:41:57;57.53;35.84;72.26;;
78074;Laerm;67283;50.960;13.856;2023-05-10T09:44:28;56.98;35.12;73.27;;
78074;Laerm;67283;50.960;13.856;2023-05-10T09:46:56;55.95;37.34;69.46;;
78074;Laerm;67283;50.960;13.856;2023-05-10T09:49:24;55.87;34.90;71.12;;
78074;Laerm;67283;50.960;13.856;2023-05-10T09:52:02;59.23;35.33;77.48;;
78074;Laerm;67283;50.960;13.856;2023-05-10T09:54:30;60.21;35.64;75.81;;
78074;Laerm;67283;50.960;13.856;2023-05-10T09:56:59;61.74;36.37;75.02;;
78074;Laerm;67283;50.960;13.856;2023-05-10T09:59:29;58.39;36.02;75.68;;
78074;Laerm;67283;50.960;13.856;2023-05-10T10:01:58;63.64;34.63;77.18;;
78074;Laerm;67283;50.960;13.856;2023-05-10T10:04:26;63.64;34.63;77.18;;
78074;Laerm;67283;50.960;13.856;2023-05-10T10:07:01;60.56;36.04;81.13;;
78074;Laerm;67283;50.960;13.856;2023-05-10T10:09:29;59.74;35.80;77.86;;
78074;Laerm;67283;50.960;13.856;2023-05-10T10:11:57;62.90;36.28;77.24;;
78074;Laerm;67283;50.960;13.856;2023-05-10T10:14:25;57.73;35.09;69.62;;
78074;Laerm;67283;50.960;13.856;2023-05-10T10:16:56;62.52;36.07;77.67;;
78074;Laerm;67283;50.960;13.856;2023-05-10T10:19:24;61.61;34.16;82.61;;
78074;Laerm;67283;50.960;13.856;2023-05-10T10:21:53;59.68;35.94;76.75;;
78074;Laerm;67283;50.960;13.856;2023-05-10T10:24:21;57.81;35.56;74.01;;
78074;Laerm;67283;50.960;13.856;2023-05-10T10:26:49;63.49;35.29;80.71;;
78074;Laerm;67283;50.960;13.856;2023-05-10T10:29:21;55.44;34.92;70.50;;
78074;Laerm;67283;50.960;13.856;2023-05-10T10:31:53;64.69;36.44;83.57;;
78074;Laerm;67283;50.960;13.856;2023-05-10T10:34:27;60.60;37.19;72.72;;
78074;Laerm;67283;50.960;13.856;2023-05-10T10:36:56;56.74;36.67;76.57;;
78074;Laerm;67283;50.960;13.856;2023-05-10T10:39:25;55.12;35.92;70.17;;
78074;Laerm;67283;50.960;13.856;2023-05-10T10:41:53;57.52;35.09;71.53;;
78074;Laerm;67283;50.960;13.856;2023-05-10T10:44:25;60.31;36.26;74.16;;
78074;Laerm;67283;50.960;13.856;2023-05-10T10:47:01;60.13;39.51;71.04;;
78074;Laerm;67283;50.960;13.856;2023-05-10T10:49:34;57.60;35.63;78.51;;
78074;Laerm;67283;50.960;13.856;2023-05-10T10:52:15;63.46;34.90;79.31;;
78074;Laerm;67283;50.960;13.856;2023-05-10T10:54:47;63.85;35.73;78.94;;
78074;Laerm;67283;50.960;13.856;2023-05-10T10:57:18;59.54;35.77;73.66;;
78074;Laerm;67283;50.960;13.856;2023-05-10T10:59:46;59.80;38.34;73.20;;
78074;Laerm;67283;50.960;13.856;2023-05-10T11:05:00;51.52;33.72;66.50;;
78074;Laerm;67283;50.960;13.856;2023-05-10T11:07:52;51.52;33.72;66.50;;
78074;Laerm;67283;50.960;13.856;2023-05-10T11:10:20;58.83;33.44;76.26;;
78074;Laerm;67283;50.960;13.856;2023-05-10T11:12:51;59.87;41.73;70.11;;
78074;Laerm;67283;50.960;13.856;2023-05-10T11:15:20;60.38;37.32;73.35;;
78074;Laerm;67283;50.960;13.856;2023-05-10T11:17:55;57.91;35.37;71.77;;
78074;Laerm;67283;50.960;13.856;2023-05-10T11:20:26;63.57;35.85;79.04;;
78074;Laerm;67283;50.960;13.856;2023-05-10T11:23:00;59.95;34.73;71.45;;
78074;Laerm;67283;50.960;13.856;2023-05-10T11:25:41;58.85;35.04;76.45;;
78074;Laerm;67283;50.960;13.856;2023-05-10T11:28:09;58.85;35.04;76.45;;
78074;Laerm;67283;50.960;13.856;2023-05-10T11:30:37;60.27;33.78;82.44;;
78074;Laerm;67283;50.960;13.856;2023-05-10T11:33:06;56.56;33.62;70.31;;
78074;Laerm;67283;50.960;13.856;2023-05-10T11:35:40;58.81;34.48;82.10;;
78074;Laerm;67283;50.960;13.856;2023-05-10T11:38:08;60.44;33.28;79.19;;
78074;Laerm;67283;50.960;13.856;2023-05-10T11:40:37;59.88;33.54;74.77;;
78074;Laerm;67283;50.960;13.856;2023-05-10T11:43:05;61.06;42.53;71.72;;
78074;Laerm;67283;50.960;13.856;2023-05-10T11:45:33;63.36;35.51;79.33;;
78074;Laerm;67283;50.960;13.856;2023-05-10T11:48:02;58.09;34.08;73.89;;
78074;Laerm;67283;50.960;13.856;2023-05-10T11:50:30;58.77;34.13;73.92;;
78074;Laerm;67283;50.960;13.856;2023-05-10T11:53:01;56.61;33.58;72.51;;
78074;Laerm;67283;50.960;13.856;2023-05-10T11:55:29;59.28;33.70;72.74;;
78074;Laerm;67283;50.960;13.856;2023-05-10T11:58:01;59.28;33.70;72.74;;
78074;Laerm;67283;50.960;13.856;2023-05-10T12:00:30;61.38;35.65;76.87;;
78074;Laerm;67283;50.960;13.856;2023-05-10T12:03:00;60.39;38.44;75.90;;
78074;Laerm;67283;50.960;13.856;2023-05-10T12:05:28;59.51;36.72;71.22;;
78074;Laerm;67283;50.960;13.856;2023-05-10T12:08:14;59.62;34.64;70.68;;
78074;Laerm;67283;50.960;13.856;2023-05-10T12:10:43;62.20;34.92;74.80;;
78074;Laerm;67283;50.960;13.856;2023-05-10T12:13:11;57.12;34.50;69.85;;
78074;Laerm;67283;50.960;13.856;2023-05-10T12:15:40;58.37;33.93;72.13;;
78074;Laerm;67283;50.960;13.856;2023-05-10T12:18:09;61.04;34.12;78.66;;
78074;Laerm;67283;50.960;13.856;2023-05-10T12:20:38;61.65;35.39;78.41;;
78074;Laerm;67283;50.960;13.856;2023-05-10T12:23:08;63.05;35.72;77.63;;
78074;Laerm;67283;50.960;13.856;2023-05-10T12:25:38;64.76;34.83;83.28;;
78074;Laerm;67283;50.960;13.856;2023-05-10T12:28:07;62.14;35.35;75.76;;
78074;Laerm;67283;50.960;13.856;2023-05-10T12:30:36;58.76;34.82;73.08;;
78074;Laerm;67283;50.960;13.856;2023-05-10T12:33:07;62.18;36.03;73.64;;
78074;Laerm;67283;50.960;13.856;2023-05-10T12:35:43;57.37;36.08;73.10;;
78074;Laerm;67283;50.960;13.856;2023-05-10T12:38:24;63.15;37.08;79.08;;
78074;Laerm;67283;50.960;13.856;2023-05-10T12:40:57;57.22;34.66;71.84;;
78074;Laerm;67283;50.960;13.856;2023-05-10T12:43:25;59.63;34.74;71.80;;
78074;Laerm;67283;50.960;13.856;2023-05-10T12:45:53;64.83;42.01;76.87;;
78074;Laerm;67283;50.960;13.856;2023-05-10T12:48:21;58.60;35.04;70.96;;
78074;Laerm;67283;50.960;13.856;2023-05-10T12:50:49;63.62;38.74;82.71;;
78074;Laerm;67283;50.960;13.856;2023-05-10T12:53:17;63.75;35.54;77.65;;
78074;Laerm;67283;50.960;13.856;2023-05-10T12:55:45;60.73;36.96;71.31;;
78074;Laerm;67283;50.960;13.856;2023-05-10T12:58:16;62.64;35.41;79.03;;
78074;Laerm;67283;50.960;13.856;2023-05-10T13:00:45;63.47;37.33;76.42;;
78074;Laerm;67283;50.960;13.856;2023-05-10T13:03:13;63.47;37.33;76.42;;
78074;Laerm;67283;50.960;13.856;2023-05-10T13:05:41;63.73;35.62;84.03;;
78074;Laerm;67283;50.960;13.856;2023-05-10T13:08:09;59.78;35.72;73.85;;
78074;Laerm;67283;50.960;13.856;2023-05-10T13:10:37;63.02;37.87;76.52;;
78074;Laerm;67283;50.960;13.856;2023-05-10T13:13:05;63.43;39.58;75.25;;
78074;Laerm;67283;50.960;13.856;2023-05-10T13:15:36;59.81;38.17;73.38;;
78074;Laerm;67283;50.960;13.856;2023-05-10T13:18:04;64.97;42.63;82.07;;
78074;Laerm;67283;50.960;13.856;2023-05-10T13:20:33;64.47;41.38;76.94;;
78074;Laerm;67283;50.960;13.856;2023-05-10T13:23:01;61.98;38.57;76.55;;
78074;Laerm;67283;50.960;13.856;2023-05-10T13:25:29;64.15;43.32;81.57;;
78074;Laerm;67283;50.960;13.856;2023-05-10T13:27:59;63.59;43.12;74.89;;
78074;Laerm;67283;50.960;13.856;2023-05-10T13:30:27;62.65;37.11;74.23;;
78074;Laerm;67283;50.960;13.856;2023-05-10T13:32:58;61.16;38.29;73.47;;
78074;Laerm;67283;50.960;13.856;2023-05-10T13:35:26;62.38;38.64;74.84;;
78074;Laerm;67283;50.960;13.856;2023-05-10T13:37:54;59.09;37.41;73.97;;
78074;Laerm;67283;50.960;13.856;2023-05-10T13:40:22;56.03;36.41;68.50;;
78074;Laerm;67283;50.960;13.856;2023-05-10T13:42:50;62.34;37.57;76.63;;
78074;Laerm;67283;50.960;13.856;2023-05-10T13:45:19;62.32;36.57;79.23;;
78074;Laerm;67283;50.960;13.856;2023-05-10T13:47:47;58.20;33.82;70.55;;
78074;Laerm;67283;50.960;13.856;2023-05-10T13:50:17;61.36;34.56;72.06;;